createdAt,value
2018-06-19T00:00:40.330Z,1.90
2018-06-19T00:03:11.046Z,2.30
2018-06-19T00:05:41.737Z,1.90
2018-06-19T00:08:12.366Z,2.00
2018-06-19T00:10:43.007Z,2.20
2018-06-19T00:13:13.735Z,1.73
2018-06-19T00:15:44.397Z,2.23
2018-06-19T00:18:20.178Z,2.13
2018-06-19T00:20:51.843Z,2.00
2018-06-19T00:23:22.523Z,1.90
2018-06-19T00:25:53.180Z,2.20
2018-06-19T00:28:23.968Z,2.00
2018-06-19T00:30:54.622Z,2.27
2018-06-19T00:33:25.246Z,2.10
2018-06-19T00:35:56.055Z,2.37
2018-06-19T00:38:26.685Z,2.30
2018-06-19T00:40:57.382Z,2.50
2018-06-19T00:43:28.041Z,2.03
2018-06-19T00:45:59.856Z,2.47
2018-06-19T00:48:30.533Z,2.03
2018-06-19T00:51:01.332Z,2.30
2018-06-19T00:53:31.999Z,2.10
2018-06-19T00:56:19.451Z,2.50
2018-06-19T00:58:50.076Z,2.37
2018-06-19T01:01:20.853Z,2.50
2018-06-19T01:03:51.469Z,2.20
2018-06-19T01:06:22.099Z,1.93
2018-06-19T01:08:52.744Z,2.50
2018-06-19T01:11:23.364Z,2.43
2018-06-19T01:13:54.094Z,2.30
2018-06-19T01:16:24.735Z,2.60
2018-06-19T01:18:55.429Z,2.30
2018-06-19T01:21:26.084Z,2.30
2018-06-19T01:23:56.715Z,2.40
2018-06-19T01:26:27.371Z,2.27
2018-06-19T01:28:58.085Z,2.20
2018-06-19T01:31:28.743Z,2.17
2018-06-19T01:33:59.430Z,2.10
2018-06-19T01:36:30.125Z,2.30
2018-06-19T01:39:01.396Z,1.67
2018-06-19T01:41:32.012Z,2.30
2018-06-19T01:44:02.853Z,2.30
2018-06-19T01:46:33.454Z,2.30
2018-06-19T01:49:04.135Z,2.20
2018-06-19T01:51:34.420Z,2.10
2018-06-19T01:54:04.937Z,2.40
2018-06-19T01:56:35.771Z,2.33
2018-06-19T01:59:06.715Z,2.43
2018-06-19T02:01:37.349Z,1.90
2018-06-19T02:04:08.075Z,2.70
2018-06-19T02:06:38.719Z,2.00
2018-06-19T02:09:09.916Z,2.10
2018-06-19T02:11:40.549Z,2.10
2018-06-19T02:14:11.218Z,2.03
2018-06-19T02:16:41.855Z,2.17
2018-06-19T02:19:12.484Z,2.73
2018-06-19T02:21:43.228Z,2.33
2018-06-19T02:24:13.936Z,3.10
2018-06-19T02:26:44.559Z,2.20
2018-06-19T02:29:15.146Z,2.30
2018-06-19T02:31:45.818Z,2.53
2018-06-19T02:34:16.464Z,2.30
2018-06-19T02:36:47.659Z,2.47
2018-06-19T02:39:18.305Z,2.33
2018-06-19T02:41:48.962Z,2.30
2018-06-19T02:44:19.601Z,2.10
2018-06-19T02:46:50.300Z,2.50
2018-06-19T02:49:20.950Z,2.37
2018-06-19T02:51:51.845Z,2.33
2018-06-19T02:54:22.510Z,2.60
2018-06-19T02:56:53.196Z,2.80
2018-06-19T02:59:23.810Z,2.97
2018-06-19T03:01:54.506Z,3.27
2018-06-19T03:04:25.144Z,2.67
2018-06-19T03:06:55.951Z,2.83
2018-06-19T03:09:26.606Z,2.70
2018-06-19T03:11:57.253Z,3.00
2018-06-19T03:14:27.873Z,2.90
2018-06-19T03:16:58.529Z,2.60
2018-06-19T03:19:29.153Z,3.20
2018-06-19T03:21:59.834Z,2.80
2018-06-19T03:24:30.441Z,3.00
2018-06-19T03:27:01.096Z,2.80
2018-06-19T03:29:31.848Z,3.00
2018-06-19T03:32:02.537Z,2.83
2018-06-19T03:34:33.176Z,2.80
2018-06-19T03:37:03.844Z,3.30
2018-06-19T03:39:34.542Z,3.03
2018-06-19T03:42:05.252Z,2.93
2018-06-19T03:44:35.904Z,2.80
2018-06-19T03:47:06.717Z,2.93
2018-06-19T03:49:37.368Z,2.83
2018-06-19T03:52:08.165Z,2.60
2018-06-19T03:54:38.784Z,2.77
2018-06-19T03:57:09.424Z,2.87
2018-06-19T03:59:40.100Z,2.77
2018-06-19T04:02:10.794Z,2.90
2018-06-19T04:04:41.511Z,2.70
2018-06-19T04:07:12.160Z,3.00
2018-06-19T04:09:42.812Z,2.70
2018-06-19T04:12:13.492Z,2.50
2018-06-19T04:14:44.592Z,2.67
2018-06-19T04:17:22.885Z,3.00
2018-06-19T04:19:54.036Z,2.67
2018-06-19T04:22:25.155Z,2.80
2018-06-19T04:24:55.829Z,2.80
2018-06-19T04:27:26.674Z,2.33
2018-06-19T04:29:57.330Z,2.83
2018-06-19T04:32:27.991Z,2.60
2018-06-19T04:34:58.628Z,2.47
2018-06-19T04:37:29.248Z,2.50
2018-06-19T04:39:59.922Z,3.00
2018-06-19T04:42:30.595Z,3.37
2018-06-19T04:45:01.265Z,3.07
2018-06-19T04:47:31.932Z,3.20
2018-06-19T04:50:02.563Z,3.43
2018-06-19T04:52:33.172Z,3.37
2018-06-19T04:55:03.831Z,3.80
2018-06-19T04:57:34.524Z,3.47
2018-06-19T05:00:05.725Z,3.37
2018-06-19T05:02:36.539Z,4.20
2018-06-19T05:05:07.285Z,3.70
2018-06-19T05:07:37.905Z,3.40
2018-06-19T05:10:08.724Z,3.90
2018-06-19T05:12:39.466Z,4.40
2018-06-19T05:15:10.330Z,4.40
2018-06-19T05:17:40.950Z,4.60
2018-06-19T05:20:11.651Z,4.83
2018-06-19T05:22:42.301Z,4.80
2018-06-19T05:25:13.603Z,4.33
2018-06-19T05:27:44.204Z,5.07
2018-06-19T05:30:14.855Z,4.77
2018-06-19T05:32:45.642Z,5.10
2018-06-19T05:35:16.371Z,5.13
2018-06-19T05:37:47.105Z,5.17
2018-06-19T05:40:17.781Z,5.10
2018-06-19T05:42:48.510Z,5.00
2018-06-19T05:45:19.173Z,5.40
2018-06-19T05:47:49.890Z,5.60
2018-06-19T05:50:20.594Z,6.20
2018-06-19T05:52:51.276Z,5.87
2018-06-19T05:55:22.876Z,5.70
2018-06-19T05:57:53.524Z,6.43
2018-06-19T06:00:23.836Z,6.47
2018-06-19T06:02:54.391Z,6.10
2018-06-19T06:05:25.019Z,6.20
2018-06-19T06:07:55.707Z,6.50
2018-06-19T06:10:26.414Z,7.07
2018-06-19T06:12:57.087Z,6.80
2018-06-19T06:15:27.747Z,6.70
2018-06-19T06:17:58.428Z,7.27
2018-06-19T06:20:29.239Z,7.50
2018-06-19T06:22:59.891Z,7.70
2018-06-19T06:25:30.552Z,8.07
2018-06-19T06:28:01.247Z,7.27
2018-06-19T06:30:31.874Z,8.80
2018-06-19T06:33:02.525Z,7.87
2018-06-19T06:35:33.163Z,7.97
2018-06-19T06:38:03.849Z,8.37
2018-06-19T06:40:34.478Z,8.57
2018-06-19T06:43:05.209Z,8.70
2018-06-19T06:45:35.840Z,8.43
2018-06-19T06:48:06.520Z,8.60
2018-06-19T06:50:37.144Z,8.57
2018-06-19T06:53:07.903Z,8.53
2018-06-19T06:55:38.525Z,9.80
2018-06-19T06:58:09.261Z,9.00
2018-06-19T07:00:39.919Z,8.90
2018-06-19T07:03:10.639Z,8.90
2018-06-19T07:05:41.283Z,9.70
2018-06-19T07:08:12.090Z,8.63
2018-06-19T07:10:42.672Z,9.57
2018-06-19T07:13:13.422Z,8.97
2018-06-19T07:15:44.080Z,8.80
2018-06-19T07:18:14.823Z,9.47
2018-06-19T07:20:45.468Z,9.20
2018-06-19T07:23:16.127Z,10.00
2018-06-19T07:25:46.819Z,9.07
2018-06-19T07:28:17.469Z,9.30
2018-06-19T07:30:48.168Z,9.47
2018-06-19T07:33:18.868Z,9.70
2018-06-19T07:35:49.543Z,9.33
2018-06-19T07:38:20.180Z,10.77
2018-06-19T07:40:50.872Z,10.50
2018-06-19T07:43:21.508Z,10.27
2018-06-19T07:45:52.281Z,10.63
2018-06-19T07:48:22.929Z,11.07
2018-06-19T07:50:53.590Z,10.63
2018-06-19T07:53:24.221Z,10.60
2018-06-19T07:55:54.918Z,11.67
2018-06-19T07:58:25.538Z,11.77
2018-06-19T08:00:56.200Z,12.97
2018-06-19T08:03:26.811Z,13.70
2018-06-19T08:05:57.449Z,12.27
2018-06-19T08:08:28.814Z,12.70
2018-06-19T08:10:59.487Z,12.23
2018-06-19T08:13:30.237Z,13.87
2018-06-19T08:16:00.899Z,14.47
2018-06-19T08:18:31.602Z,14.53
2018-06-19T08:21:02.208Z,15.80
2018-06-19T08:23:32.872Z,15.37
2018-06-19T08:26:18.468Z,15.73
2018-06-19T08:28:49.170Z,14.13
2018-06-19T08:31:19.835Z,15.13
2018-06-19T08:33:50.460Z,14.93
2018-06-19T08:36:21.185Z,16.63
2018-06-19T08:38:51.815Z,16.23
2018-06-19T08:41:22.470Z,16.70
2018-06-19T08:43:53.125Z,16.13
2018-06-19T08:46:23.764Z,16.10
2018-06-19T08:48:54.511Z,17.07
2018-06-19T08:51:25.181Z,15.87
2018-06-19T08:53:55.885Z,15.97
2018-06-19T08:56:26.551Z,15.57
2018-06-19T08:58:57.198Z,15.83
2018-06-19T09:01:29.856Z,15.70
2018-06-19T09:04:00.726Z,14.77
2018-06-19T09:06:31.392Z,15.63
2018-06-19T09:09:01.791Z,14.80
2018-06-19T09:11:32.313Z,14.30
2018-06-19T09:14:03.019Z,14.67
2018-06-19T09:16:33.671Z,14.07
2018-06-19T09:19:04.332Z,15.13
2018-06-19T09:21:34.966Z,13.30
2018-06-19T09:24:05.658Z,15.03
2018-06-19T09:26:36.275Z,14.00
2018-06-19T09:29:07.073Z,13.93
2018-06-19T09:31:37.788Z,14.17
2018-06-19T09:34:08.447Z,13.37
2018-06-19T09:36:39.397Z,13.83
2018-06-19T09:39:12.312Z,14.20
2018-06-19T09:41:44.243Z,15.33
2018-06-19T09:44:15.032Z,17.57
2018-06-19T09:46:45.715Z,16.57
2018-06-19T09:49:16.418Z,16.37
2018-06-19T09:51:47.159Z,17.93
2018-06-19T09:54:17.793Z,17.60
2018-06-19T09:56:48.525Z,17.47
2018-06-19T09:59:19.315Z,17.67
2018-06-19T10:01:50.122Z,18.33
2018-06-19T10:04:20.908Z,20.40
2018-06-19T10:06:51.616Z,21.07
2018-06-19T10:09:22.478Z,23.87
2018-06-19T10:11:53.202Z,23.73
2018-06-19T10:14:23.898Z,24.13
2018-06-19T10:17:01.206Z,23.87
2018-06-19T10:19:31.904Z,25.70
2018-06-19T10:22:02.518Z,27.90
2018-06-19T10:24:33.463Z,28.70
2018-06-19T10:27:04.180Z,27.27
2018-06-19T10:29:34.904Z,27.00
2018-06-19T10:32:05.774Z,26.77
2018-06-19T10:34:36.421Z,26.43
2018-06-19T10:37:07.176Z,26.03
2018-06-19T10:39:37.832Z,28.23
2018-06-19T10:42:08.497Z,25.37
2018-06-19T10:44:39.150Z,28.63
2018-06-19T10:47:09.871Z,29.13
2018-06-19T10:49:40.581Z,28.40
2018-06-19T10:52:11.253Z,28.83
2018-06-19T10:54:41.888Z,27.60
2018-06-19T10:57:12.573Z,27.33
2018-06-19T10:59:43.220Z,26.10
2018-06-19T11:02:13.895Z,27.33
2018-06-19T11:04:44.556Z,26.80
2018-06-19T11:07:15.272Z,25.03
2018-06-19T11:09:45.907Z,24.67
2018-06-19T11:12:16.554Z,22.87
2018-06-19T11:14:47.181Z,22.77
2018-06-19T11:17:17.823Z,21.87
2018-06-19T11:19:49.002Z,22.17
2018-06-19T11:22:19.734Z,21.73
2018-06-19T11:24:50.356Z,20.67
2018-06-19T11:27:21.068Z,19.77
2018-06-19T11:29:51.708Z,20.17
2018-06-19T11:32:22.418Z,21.73
2018-06-19T11:34:53.136Z,20.67
2018-06-19T11:37:24.278Z,21.80
2018-06-19T11:39:54.988Z,21.30
2018-06-19T11:42:25.697Z,20.63
2018-06-19T11:44:56.350Z,21.37
2018-06-19T11:47:26.734Z,20.83
2018-06-19T11:49:57.307Z,20.33
2018-06-19T11:52:28.060Z,19.50
2018-06-19T11:54:58.760Z,19.23
2018-06-19T11:57:29.473Z,20.00
2018-06-19T12:00:00.140Z,21.10
2018-06-19T12:02:30.821Z,21.10
2018-06-19T12:05:01.481Z,20.57
2018-06-19T12:07:37.324Z,20.23
2018-06-19T12:10:08.406Z,20.53
2018-06-19T12:12:39.780Z,17.90
2018-06-19T12:15:10.513Z,18.37
2018-06-19T12:17:41.223Z,18.07
2018-06-19T12:20:11.973Z,18.77
2018-06-19T12:22:42.622Z,18.00
2018-06-19T12:25:13.271Z,17.93
2018-06-19T12:27:43.977Z,17.80
2018-06-19T12:30:14.651Z,17.10
2018-06-19T12:32:45.262Z,15.93
2018-06-19T12:35:15.935Z,14.50
2018-06-19T12:37:46.578Z,16.03
2018-06-19T12:40:17.216Z,16.70
2018-06-19T12:42:47.866Z,14.43
2018-06-19T12:45:18.515Z,15.07
2018-06-19T12:47:49.176Z,14.93
2018-06-19T12:50:38.740Z,14.83
2018-06-19T12:53:26.178Z,13.00
2018-06-19T12:56:15.327Z,12.90
2018-06-19T12:58:45.932Z,12.13
2018-06-19T13:01:16.611Z,11.73
2018-06-19T13:04:03.958Z,11.60
2018-06-19T13:06:37.016Z,11.63
2018-06-19T13:09:09.272Z,12.77
2018-06-19T13:11:39.932Z,12.17
2018-06-19T13:14:38.089Z,13.53
2018-06-19T13:17:25.580Z,12.10
2018-06-19T13:20:13.099Z,11.80
2018-06-19T13:22:43.764Z,11.17
2018-06-19T13:25:14.407Z,10.90
2018-06-19T13:27:45.091Z,10.93
2018-06-19T13:30:32.551Z,9.67
2018-06-19T13:33:03.226Z,10.07
2018-06-19T13:35:33.990Z,9.87
2018-06-19T13:38:04.669Z,8.50
2018-06-19T13:41:18.750Z,7.40
2018-06-19T13:44:08.066Z,6.57
2018-06-19T13:46:38.703Z,5.97
2018-06-19T13:49:09.492Z,5.77
2018-06-19T13:51:40.115Z,5.30
2018-06-19T13:54:10.858Z,6.43
2018-06-19T13:57:31.360Z,6.67
2018-06-19T14:00:04.033Z,6.97
2018-06-19T14:02:34.696Z,6.73
2018-06-19T14:05:06.153Z,7.50
2018-06-19T14:07:43.973Z,7.13
2018-06-19T14:10:31.685Z,7.00
2018-06-19T14:13:03.611Z,7.77
2018-06-19T14:15:37.740Z,7.10
2018-06-19T14:18:09.044Z,6.33
2018-06-19T14:20:40.244Z,6.33
2018-06-19T14:23:11.255Z,6.63
2018-06-19T14:25:42.072Z,6.00
2018-06-19T14:28:12.763Z,5.87
2018-06-19T14:30:43.429Z,6.17
2018-06-19T14:33:14.221Z,6.10
2018-06-19T14:35:44.739Z,5.87
2018-06-19T14:38:15.361Z,6.23
2018-06-19T14:40:46.021Z,6.33
2018-06-19T14:43:16.654Z,6.43
2018-06-19T14:45:47.381Z,5.57
2018-06-19T14:48:18.007Z,6.40
2018-06-19T14:50:48.667Z,6.20
2018-06-19T14:53:19.281Z,7.10
2018-06-19T14:55:49.959Z,7.37
2018-06-19T14:58:20.608Z,6.70
2018-06-19T15:00:51.257Z,7.77
2018-06-19T15:03:21.892Z,7.53
2018-06-19T15:05:52.547Z,8.77
2018-06-19T15:08:23.196Z,8.00
2018-06-19T15:10:53.863Z,7.90
2018-06-19T15:13:24.524Z,7.23
2018-06-19T15:15:55.238Z,7.00
2018-06-19T15:18:25.955Z,6.40
2018-06-19T15:20:56.587Z,5.27
2018-06-19T15:23:27.432Z,5.90
2018-06-19T15:25:58.092Z,5.80
2018-06-19T15:28:28.733Z,6.30
2018-06-19T15:30:59.348Z,6.27
2018-06-19T15:33:30.016Z,6.67
2018-06-19T15:36:00.644Z,6.43
2018-06-19T15:38:31.307Z,6.07
2018-06-19T15:41:01.997Z,6.50
2018-06-19T15:43:32.616Z,6.97
2018-06-19T15:46:03.266Z,6.50
2018-06-19T15:48:33.978Z,5.33
2018-06-19T15:51:04.581Z,6.00
2018-06-19T15:53:35.230Z,6.33
2018-06-19T15:56:05.853Z,6.63
2018-06-19T15:58:36.502Z,6.90
2018-06-19T16:01:07.235Z,7.30
2018-06-19T16:03:37.902Z,7.10
2018-06-19T16:06:08.580Z,6.90
2018-06-19T16:08:39.375Z,6.43
2018-06-19T16:11:10.066Z,7.43
2018-06-19T16:13:40.910Z,8.47
2018-06-19T16:16:11.636Z,8.40
2018-06-19T16:18:42.606Z,7.93
2018-06-19T16:21:13.289Z,7.20
2018-06-19T16:23:43.936Z,7.33
2018-06-19T16:26:14.626Z,7.57
2018-06-19T16:28:45.280Z,6.67
2018-06-19T16:31:15.962Z,7.40
2018-06-19T16:33:46.579Z,7.27
2018-06-19T16:36:17.300Z,7.40
2018-06-19T16:38:47.950Z,6.60
2018-06-19T16:41:18.640Z,6.73
2018-06-19T16:43:49.308Z,6.23
2018-06-19T16:46:19.994Z,7.60
2018-06-19T16:48:50.642Z,7.63
2018-06-19T16:51:21.280Z,6.63
2018-06-19T16:53:51.925Z,7.57
2018-06-19T16:56:22.600Z,8.53
2018-06-19T16:58:53.274Z,8.30
2018-06-19T17:01:24.024Z,9.37
2018-06-19T17:03:54.672Z,8.27
2018-06-19T17:06:25.344Z,8.67
2018-06-19T17:08:56.024Z,8.10
2018-06-19T17:11:26.669Z,7.20
2018-06-19T17:13:57.364Z,6.60
2018-06-19T17:16:28.029Z,6.90
2018-06-19T17:18:58.705Z,6.53
2018-06-19T17:21:29.393Z,6.87
2018-06-19T17:24:00.183Z,7.10
2018-06-19T17:26:30.864Z,6.50
2018-06-19T17:29:01.632Z,6.33
2018-06-19T17:31:32.241Z,6.00
2018-06-19T17:34:02.913Z,7.20
2018-06-19T17:36:33.533Z,6.50
2018-06-19T17:39:04.985Z,6.43
2018-06-19T17:41:35.759Z,6.47
2018-06-19T17:44:06.543Z,6.53
2018-06-19T17:46:37.186Z,6.60
2018-06-19T17:49:07.893Z,6.50
2018-06-19T17:51:38.535Z,6.73
2018-06-19T17:54:09.385Z,6.20
2018-06-19T17:56:40.083Z,6.03
2018-06-19T17:59:10.765Z,6.00
2018-06-19T18:01:41.422Z,5.90
2018-06-19T18:04:12.113Z,6.57
2018-06-19T18:06:42.738Z,6.20
2018-06-19T18:09:13.467Z,6.17
2018-06-19T18:11:44.125Z,6.03
2018-06-19T18:14:14.823Z,5.47
2018-06-19T18:16:45.455Z,5.40
2018-06-19T18:19:16.123Z,5.17
2018-06-19T18:21:46.894Z,5.20
2018-06-19T18:24:17.561Z,5.70
2018-06-19T18:26:48.323Z,5.93
2018-06-19T18:29:18.964Z,6.10
2018-06-19T18:31:49.800Z,5.73
2018-06-19T18:34:20.476Z,5.70
2018-06-19T18:36:51.164Z,6.27
2018-06-19T18:39:21.823Z,6.57
2018-06-19T18:41:52.526Z,6.40
2018-06-19T18:44:23.211Z,6.77
2018-06-19T18:46:53.872Z,6.40
2018-06-19T18:49:24.675Z,6.30
2018-06-19T18:51:55.469Z,6.37
2018-06-19T18:54:26.108Z,6.60
2018-06-19T18:56:56.800Z,6.93
2018-06-19T18:59:27.469Z,7.20
2018-06-19T19:01:58.196Z,7.27
2018-06-19T19:04:28.874Z,6.50
2018-06-19T19:06:59.544Z,6.07
2018-06-19T19:09:30.205Z,6.50
2018-06-19T19:12:00.860Z,7.53
2018-06-19T19:14:36.762Z,7.00
2018-06-19T19:17:12.969Z,6.50
2018-06-19T19:19:43.634Z,7.27
2018-06-19T19:22:14.292Z,7.20
2018-06-19T19:24:44.927Z,6.87
2018-06-19T19:27:20.703Z,7.10
2018-06-19T19:29:52.359Z,6.83
2018-06-19T19:32:23.002Z,7.83
2018-06-19T19:34:53.657Z,7.37
2018-06-19T19:37:29.469Z,7.87
2018-06-19T19:40:00.079Z,7.43
2018-06-19T19:42:30.721Z,7.87
2018-06-19T19:45:01.375Z,7.43
2018-06-19T19:47:37.168Z,8.10
2018-06-19T19:50:07.913Z,7.00
2018-06-19T19:53:09.258Z,8.03
2018-06-19T19:55:44.971Z,7.07
2018-06-19T19:58:20.920Z,8.30
2018-06-19T20:00:51.684Z,7.80
2018-06-19T20:03:53.338Z,7.30
2018-06-19T20:06:23.995Z,7.90
2018-06-19T20:08:54.613Z,7.47
2018-06-19T20:11:25.266Z,8.57
2018-06-19T20:13:56.016Z,7.83
2018-06-19T20:16:26.698Z,8.23
2018-06-19T20:18:57.565Z,8.77
2018-06-19T20:21:28.290Z,8.03
2018-06-19T20:23:58.962Z,8.80
2018-06-19T20:26:29.607Z,7.93
2018-06-19T20:29:00.241Z,7.43
2018-06-19T20:31:30.911Z,7.50
2018-06-19T20:34:01.623Z,6.10
2018-06-19T20:36:32.273Z,7.30
2018-06-19T20:39:03.008Z,9.00
2018-06-19T20:41:33.739Z,8.00
2018-06-19T20:44:04.653Z,9.10
2018-06-19T20:46:35.393Z,8.83
2018-06-19T20:49:06.131Z,9.50
2018-06-19T20:51:36.799Z,9.03
2018-06-19T20:54:07.511Z,9.50
2018-06-19T20:56:38.157Z,9.60
2018-06-19T20:59:08.887Z,10.80
2018-06-19T21:01:39.655Z,9.50
2018-06-19T21:04:10.542Z,10.97
2018-06-19T21:06:41.255Z,11.17
2018-06-19T21:09:11.931Z,10.60
2018-06-19T21:11:42.629Z,11.47
2018-06-19T21:14:13.324Z,10.50
2018-06-19T21:16:43.993Z,11.27
2018-06-19T21:19:14.684Z,10.67
2018-06-19T21:21:45.429Z,11.03
2018-06-19T21:24:16.152Z,10.60
2018-06-19T21:26:46.864Z,10.60
2018-06-19T21:29:17.531Z,9.60
2018-06-19T21:31:48.221Z,9.83
2018-06-19T21:34:18.873Z,10.57
2018-06-19T21:36:49.536Z,11.20
2018-06-19T21:39:20.172Z,12.47
2018-06-19T21:41:51.139Z,10.23
2018-06-19T21:44:21.786Z,12.57
2018-06-19T21:46:52.435Z,12.53
2018-06-19T21:49:23.112Z,12.73
2018-06-19T21:51:53.837Z,10.20
2018-06-19T21:54:24.554Z,12.17
2018-06-19T21:56:55.268Z,11.67
2018-06-19T21:59:26.040Z,11.87
2018-06-19T22:01:56.782Z,13.20
2018-06-19T22:04:27.503Z,12.57
2018-06-19T22:06:58.160Z,12.60
2018-06-19T22:09:29.140Z,13.37
2018-06-19T22:11:59.845Z,13.87
2018-06-19T22:14:30.488Z,16.03
2018-06-19T22:17:01.220Z,13.90
2018-06-19T22:19:31.898Z,14.20
2018-06-19T22:22:02.629Z,15.30
2018-06-19T22:24:33.281Z,13.57
2018-06-19T22:27:03.971Z,12.47
2018-06-19T22:29:34.684Z,13.27
2018-06-19T22:32:05.353Z,13.40
2018-06-19T22:34:36.013Z,13.37
2018-06-19T22:37:06.882Z,13.33
2018-06-19T22:39:37.529Z,12.67
2018-06-19T22:42:08.324Z,12.83
2018-06-19T22:44:39.078Z,15.00
2018-06-19T22:47:09.789Z,13.67
2018-06-19T22:49:40.467Z,13.33
2018-06-19T22:52:11.236Z,12.63
2018-06-19T22:54:41.899Z,13.73
2018-06-19T22:57:12.591Z,14.73
2018-06-19T22:59:43.291Z,13.80
2018-06-19T23:02:13.950Z,15.43
2018-06-19T23:04:44.663Z,15.17
2018-06-19T23:07:15.381Z,13.87
2018-06-19T23:09:46.045Z,13.50
2018-06-19T23:12:16.729Z,15.27
2018-06-19T23:14:47.364Z,14.97
2018-06-19T23:17:18.019Z,14.27
2018-06-19T23:19:48.675Z,16.10
2018-06-19T23:22:19.924Z,16.40
2018-06-19T23:24:50.619Z,15.10
2018-06-19T23:27:21.352Z,14.70
2018-06-19T23:29:52.126Z,15.10
2018-06-19T23:32:22.801Z,16.30
2018-06-19T23:34:53.496Z,15.30
2018-06-19T23:37:24.161Z,15.10
2018-06-19T23:39:54.927Z,14.80
2018-06-19T23:42:25.757Z,15.83
2018-06-19T23:44:56.567Z,14.27
2018-06-19T23:47:27.247Z,12.90
2018-06-19T23:49:57.973Z,14.60
2018-06-19T23:52:28.804Z,14.57
2018-06-19T23:54:59.544Z,15.57
2018-06-19T23:57:30.438Z,14.60
